Impacts TAF Board
For situational awareness. Not to be used for flight planning purposes.
IDs:

KLAX - Los Angeles Intl, CA, US

Issued at 2103 UTC 21 May 2022
Updated at 2108 UTC 21 May 2022
Potential Impact None Slight Moderate High
Time2053Z 21/22Z 21/23Z 22/00Z 22/01Z 22/02Z 22/03Z 22/04Z 22/05Z 22/06Z 22/07Z 22/08Z 22/09Z 22/10Z>>
Type OBS PRVL PRVL PRVL PRVL PRVL PRVL PRVL PRVL PRVL PRVL PRVL PRVL PRVL
VIS 10 >6 >6 >6 >6 >6 >6 >6 >6 >6 >6 >6 >6 >6
CIG 50 50 50 50 50 50 50 -- -- -- -- 12 12 12
Cover BKN BKN BKN BKN BKN BKN BKN SCT SCT SCT SCT BKN BKN BKN
FltCat VFR VFR VFR VFR VFR VFR VFR VFR VFR VFR VFR MVFR MVFR MVFR
WX -- -- -- -- -- -- -- -- -- -- -- -- -- --
WDir 230 250 250 250 250 250 250 VRB VRB VRB VRB 180 180 180
WSpd 11 11 11 11 11 11 11 3 3 3 3 4 4 4
WGst -- -- -- -- -- -- -- -- -- -- -- -- -- --
WSHgt -- -- -- -- -- -- -- -- -- -- -- -- -- --
WSDir -- -- -- -- -- -- -- -- -- -- -- -- -- --
WSSpd -- -- -- -- -- -- -- -- -- -- -- -- -- --
Raw TAF
KLAX 212103Z 2121/2224 25011KT P6SM SCT035 BKN050
  FM220400 VRB03KT P6SM SCT050
  FM220800 18004KT P6SM BKN012 BKN022
  FM221600 26006KT P6SM SCT010 BKN022
  FM221900 26012KT P6SM SCT025


Raw METAR
KLAX 212053Z 23011KT 10SM SCT033 BKN050 21/12 A2997 RMK AO2 SLP148 T02060117 51006
KLAX 211953Z 25009KT 10SM SCT033 BKN050 19/12 A2997 RMK AO2 SLP147 T01890122
KLAX 211853Z 23009KT 10SM FEW015 SCT033 BKN047 19/12 A2997 RMK AO2 SLP146 T01890122

METAR Board
Radar Display
Forecast Discussion
For situational awareness. Not to be used for flight planning purposes.